createdAt,value
2022-10-22T00:01:12.299Z,99.90
2022-10-22T00:03:58.143Z,99.90
2022-10-22T00:06:45.037Z,99.90
2022-10-22T00:09:30.569Z,99.90
2022-10-22T00:12:16.690Z,99.90
2022-10-22T00:15:03.069Z,99.90
2022-10-22T00:17:49.661Z,99.90
2022-10-22T00:20:35.686Z,99.90
2022-10-22T00:23:21.235Z,99.90
2022-10-22T00:26:06.876Z,99.90
2022-10-22T00:28:52.853Z,99.90
2022-10-22T00:31:38.580Z,99.90
2022-10-22T00:34:24.703Z,99.90
2022-10-22T00:37:10.875Z,99.90
2022-10-22T00:39:57.332Z,99.90
2022-10-22T00:42:43.288Z,99.90
2022-10-22T00:45:30.009Z,99.90
2022-10-22T00:48:21.450Z,99.90
2022-10-22T00:51:08.321Z,99.90
2022-10-22T00:54:00.397Z,99.90
2022-10-22T00:56:47.058Z,99.90
2022-10-22T00:59:36.452Z,99.90
2022-10-22T01:02:23.292Z,99.90
2022-10-22T01:05:10.520Z,99.90
2022-10-22T01:07:56.028Z,99.90
2022-10-22T01:10:58.452Z,99.90
2022-10-22T01:13:57.866Z,99.90
2022-10-22T01:16:48.785Z,99.90
2022-10-22T01:19:52.432Z,99.90
2022-10-22T01:22:40.580Z,99.90
2022-10-22T01:25:43.961Z,99.90
2022-10-22T01:28:41.582Z,99.90
2022-10-22T01:31:31.756Z,99.90
2022-10-22T01:34:18.998Z,99.90
2022-10-22T01:37:04.862Z,99.90
2022-10-22T01:39:52.039Z,99.90
2022-10-22T01:42:37.527Z,99.90
2022-10-22T01:45:23.510Z,99.90
2022-10-22T01:48:34.269Z,99.90
2022-10-22T01:51:41.850Z,99.90
2022-10-22T01:54:39.150Z,99.90
2022-10-22T01:57:47.539Z,99.90
2022-10-22T02:00:38.457Z,99.90
2022-10-22T02:03:31.798Z,99.90
2022-10-22T02:06:21.750Z,99.90
2022-10-22T02:09:09.400Z,99.90
2022-10-22T02:11:56.610Z,99.90
2022-10-22T02:14:44.552Z,99.90
2022-10-22T02:17:33.340Z,99.90
2022-10-22T02:20:24.783Z,99.90
2022-10-22T02:23:10.881Z,99.90
2022-10-22T02:26:06.892Z,99.90
2022-10-22T02:28:57.855Z,99.90
2022-10-22T02:31:45.471Z,99.90
2022-10-22T02:34:33.151Z,99.90
2022-10-22T02:37:19.852Z,99.90
2022-10-22T02:40:07.244Z,99.90
2022-10-22T02:42:53.882Z,99.90
2022-10-22T02:45:39.465Z,99.90
2022-10-22T02:48:24.923Z,99.90
2022-10-22T02:51:10.937Z,99.90
2022-10-22T02:53:56.416Z,99.90
2022-10-22T02:56:42.509Z,99.90
2022-10-22T02:59:31.341Z,99.90
2022-10-22T03:02:17.301Z,99.90
2022-10-22T03:05:03.738Z,99.90
2022-10-22T03:07:50.140Z,99.90
2022-10-22T03:10:35.322Z,99.90
2022-10-22T03:13:21.596Z,99.90
2022-10-22T03:16:08.462Z,99.90
2022-10-22T03:18:54.618Z,99.90
2022-10-22T03:21:48.449Z,99.90
2022-10-22T03:24:42.526Z,99.90
2022-10-22T03:27:30.181Z,99.90
2022-10-22T03:30:19.317Z,99.90
2022-10-22T03:33:05.382Z,99.90
2022-10-22T03:35:50.900Z,99.90
2022-10-22T03:38:38.904Z,99.90
2022-10-22T03:41:24.584Z,99.90
2022-10-22T03:44:10.574Z,99.90
2022-10-22T03:46:58.741Z,99.90
2022-10-22T03:49:47.275Z,99.90
2022-10-22T03:52:38.475Z,99.90
2022-10-22T03:55:26.044Z,99.90
2022-10-22T03:58:11.703Z,99.90
2022-10-22T04:00:57.482Z,99.90
2022-10-22T04:03:43.443Z,99.90
2022-10-22T04:06:30.018Z,99.90
2022-10-22T04:09:15.560Z,99.90
2022-10-22T04:12:01.719Z,99.90
2022-10-22T04:14:48.032Z,99.90
2022-10-22T04:17:37.579Z,99.90
2022-10-22T04:20:23.045Z,99.90
2022-10-22T04:23:08.888Z,99.90
2022-10-22T04:26:02.773Z,99.90
2022-10-22T04:28:50.576Z,99.90
2022-10-22T04:31:36.487Z,99.90
2022-10-22T04:34:23.055Z,99.90
2022-10-22T04:37:08.469Z,99.90
2022-10-22T04:39:53.914Z,99.90
2022-10-22T04:42:39.792Z,99.90
2022-10-22T04:45:25.363Z,99.90
2022-10-22T04:48:10.985Z,99.90
2022-10-22T04:50:58.043Z,99.90
2022-10-22T04:53:45.309Z,99.90
2022-10-22T04:56:32.573Z,99.90
2022-10-22T04:59:18.509Z,99.90
2022-10-22T05:02:04.282Z,99.90
2022-10-22T05:04:49.830Z,99.90
2022-10-22T05:07:36.236Z,99.90
2022-10-22T05:10:21.830Z,99.90
2022-10-22T05:13:07.560Z,99.90
2022-10-22T05:15:52.966Z,99.90
2022-10-22T05:18:41.576Z,99.90
2022-10-22T05:21:28.236Z,99.90
2022-10-22T05:24:14.647Z,99.90
2022-10-22T05:27:01.446Z,99.90
2022-10-22T05:29:48.617Z,99.90
2022-10-22T05:32:35.514Z,99.90
2022-10-22T05:35:21.086Z,99.90
2022-10-22T05:38:07.404Z,99.90
2022-10-22T05:41:07.534Z,99.90
2022-10-22T05:43:57.601Z,99.90
2022-10-22T05:46:43.619Z,99.90
2022-10-22T05:49:29.048Z,99.90
2022-10-22T05:52:14.971Z,99.90
2022-10-22T05:55:01.196Z,99.90
2022-10-22T05:57:46.939Z,99.90
2022-10-22T06:00:34.853Z,99.90
2022-10-22T06:03:20.569Z,99.90
2022-10-22T06:06:48.789Z,99.90
2022-10-22T06:12:22.827Z,99.90
2022-10-22T06:15:10.047Z,99.90
2022-10-22T06:17:55.992Z,99.90
2022-10-22T06:20:43.721Z,99.90
2022-10-22T06:23:30.238Z,99.90
2022-10-22T06:26:17.797Z,99.90
2022-10-22T06:29:03.935Z,99.90
2022-10-22T06:31:49.611Z,99.90
2022-10-22T06:34:35.309Z,99.90
2022-10-22T06:37:20.615Z,99.90
2022-10-22T06:40:06.983Z,99.90
2022-10-22T06:42:52.461Z,99.90
2022-10-22T06:45:38.419Z,99.90
2022-10-22T06:48:24.526Z,99.90
2022-10-22T06:51:11.866Z,99.90
2022-10-22T06:53:59.097Z,99.90
2022-10-22T06:56:47.064Z,99.90
2022-10-22T06:59:32.605Z,99.90
2022-10-22T07:02:18.068Z,99.90
2022-10-22T07:05:03.820Z,99.90
2022-10-22T07:07:49.443Z,99.90
2022-10-22T07:10:35.135Z,99.90
2022-10-22T07:13:20.707Z,99.90
2022-10-22T07:16:07.163Z,99.90
2022-10-22T07:18:52.701Z,99.90
2022-10-22T07:21:38.382Z,99.90
2022-10-22T07:24:24.071Z,99.90
2022-10-22T07:27:11.734Z,99.90
2022-10-22T07:30:00.974Z,99.90
2022-10-22T07:32:46.685Z,99.90
2022-10-22T07:35:32.598Z,99.90
2022-10-22T07:38:17.930Z,99.90
2022-10-22T07:41:04.097Z,99.90
2022-10-22T07:43:49.799Z,99.90
2022-10-22T07:46:35.293Z,99.90
2022-10-22T07:49:21.036Z,99.90
2022-10-22T07:52:07.709Z,99.90
2022-10-22T07:54:53.652Z,99.90
2022-10-22T07:57:40.257Z,99.90
2022-10-22T08:00:25.800Z,99.90
2022-10-22T08:03:13.014Z,99.90
2022-10-22T08:05:59.258Z,99.90
2022-10-22T08:08:45.907Z,99.90
2022-10-22T08:11:33.479Z,99.90
2022-10-22T08:14:19.246Z,99.90
2022-10-22T08:17:04.925Z,99.90
2022-10-22T08:19:50.661Z,99.90
2022-10-22T08:22:36.116Z,99.90
2022-10-22T08:25:21.660Z,99.90
2022-10-22T08:28:07.355Z,99.90
2022-10-22T08:30:52.911Z,99.90
2022-10-22T08:33:39.260Z,99.90
2022-10-22T08:36:24.700Z,99.90
2022-10-22T08:39:10.429Z,99.90
2022-10-22T08:42:24.922Z,99.90
2022-10-22T08:45:24.324Z,99.90
2022-10-22T08:48:24.688Z,99.90
2022-10-22T08:51:17.672Z,99.90
2022-10-22T08:54:02.766Z,99.90
2022-10-22T08:57:17.049Z,99.90
2022-10-22T09:00:10.654Z,99.90
2022-10-22T09:03:15.197Z,99.90
2022-10-22T09:06:18.864Z,99.90
2022-10-22T09:09:16.573Z,99.90
2022-10-22T09:12:04.487Z,99.90
2022-10-22T09:14:50.996Z,99.90
2022-10-22T09:17:44.651Z,99.90
2022-10-22T09:20:45.248Z,99.90
2022-10-22T09:23:47.988Z,99.90
2022-10-22T09:26:38.175Z,99.90
2022-10-22T09:29:29.098Z,99.90
2022-10-22T09:32:16.619Z,99.90
2022-10-22T09:35:02.184Z,99.90
2022-10-22T09:37:55.138Z,99.90
2022-10-22T09:40:52.458Z,99.90
2022-10-22T09:43:37.587Z,99.90
2022-10-22T09:46:29.015Z,99.90
2022-10-22T09:49:21.272Z,99.90
2022-10-22T09:52:27.462Z,99.90
2022-10-22T09:55:25.573Z,99.90
2022-10-22T09:58:13.625Z,99.90
2022-10-22T10:01:00.740Z,99.90
2022-10-22T10:03:49.160Z,99.90
2022-10-22T10:06:35.570Z,99.90
2022-10-22T10:09:23.542Z,99.90
2022-10-22T10:12:18.256Z,99.90
2022-10-22T10:15:22.829Z,99.90
2022-10-22T10:18:38.569Z,99.90
2022-10-22T10:21:40.869Z,99.90
2022-10-22T10:24:44.657Z,99.90
2022-10-22T10:28:05.695Z,99.90
2022-10-22T10:31:04.160Z,99.90
2022-10-22T10:34:18.469Z,99.90
2022-10-22T10:37:24.482Z,99.90
2022-10-22T10:40:34.606Z,99.90
2022-10-22T10:43:49.692Z,99.90
2022-10-22T10:46:47.248Z,99.90
2022-10-22T10:49:36.680Z,99.90
2022-10-22T10:52:31.688Z,97.80
2022-10-22T10:55:31.460Z,99.30
2022-10-22T10:58:39.330Z,98.40
2022-10-22T11:01:33.120Z,99.90
2022-10-22T11:04:33.649Z,99.90
2022-10-22T11:07:35.100Z,98.70
2022-10-22T11:10:42.010Z,96.90
2022-10-22T11:13:36.923Z,96.60
2022-10-22T11:16:31.010Z,95.40
2022-10-22T11:19:46.118Z,93.70
2022-10-22T11:23:13.558Z,94.00
2022-10-22T11:25:56.015Z,91.70
2022-10-22T11:28:51.127Z,91.20
2022-10-22T11:31:37.492Z,90.00
2022-10-22T11:34:34.141Z,90.10
2022-10-22T11:37:21.785Z,86.30
2022-10-22T11:40:19.198Z,81.50
2022-10-22T11:43:08.850Z,76.70
2022-10-22T11:46:17.576Z,76.70
2022-10-22T11:49:26.363Z,68.00
2022-10-22T11:52:26.015Z,63.10
2022-10-22T11:55:45.570Z,57.40
2022-10-22T11:58:39.184Z,52.40
2022-10-22T12:01:39.514Z,51.10
2022-10-22T12:04:41.919Z,46.30
2022-10-22T12:07:47.947Z,41.60
2022-10-22T12:10:48.774Z,47.00
2022-10-22T12:14:11.696Z,44.00
2022-10-22T12:17:12.833Z,41.80
2022-10-22T12:20:14.550Z,39.60
2022-10-22T12:23:00.513Z,39.00
2022-10-22T12:25:46.153Z,35.30
2022-10-22T12:28:41.134Z,35.00
2022-10-22T12:31:27.631Z,34.40
2022-10-22T12:34:23.301Z,39.30
2022-10-22T12:37:10.826Z,43.70
2022-10-22T12:39:56.435Z,46.20
2022-10-22T12:42:58.449Z,44.50
2022-10-22T12:45:46.744Z,44.40
2022-10-22T12:48:37.229Z,40.50
2022-10-22T12:51:22.859Z,37.00
2022-10-22T12:54:18.034Z,37.70
2022-10-22T12:57:03.564Z,37.70
2022-10-22T12:59:51.811Z,38.90
2022-10-22T13:02:37.472Z,39.00
2022-10-22T13:05:30.049Z,38.90
2022-10-22T13:11:13.751Z,41.00
2022-10-22T13:14:17.960Z,39.80
2022-10-22T13:17:13.438Z,41.60
2022-10-22T13:20:05.370Z,41.70
2022-10-22T13:23:21.509Z,40.00
2022-10-22T13:26:18.317Z,42.90
2022-10-22T13:29:11.438Z,41.80
2022-10-22T13:31:56.990Z,40.90
2022-10-22T13:34:44.540Z,40.40
2022-10-22T13:37:32.571Z,42.40
2022-10-22T13:40:18.798Z,41.80
2022-10-22T13:43:04.451Z,40.00
2022-10-22T13:45:55.505Z,40.60
2022-10-22T13:48:41.545Z,42.10
2022-10-22T13:51:37.507Z,41.50
2022-10-22T13:54:24.752Z,44.80
2022-10-22T13:57:10.822Z,43.00
2022-10-22T13:59:56.724Z,43.30
2022-10-22T14:02:43.687Z,42.70
2022-10-22T14:05:32.459Z,40.30
2022-10-22T14:08:21.275Z,43.00
2022-10-22T14:11:06.756Z,42.10
2022-10-22T14:13:52.178Z,40.60
2022-10-22T14:16:37.840Z,41.90
2022-10-22T14:19:23.375Z,43.30
2022-10-22T14:22:17.464Z,46.20
2022-10-22T14:25:02.926Z,46.60
2022-10-22T14:27:48.896Z,46.10
2022-10-22T14:30:34.145Z,45.10
2022-10-22T14:33:27.242Z,41.80
2022-10-22T14:36:18.962Z,42.70
2022-10-22T14:39:04.362Z,41.40
2022-10-22T14:41:50.229Z,41.30
2022-10-22T14:44:35.574Z,44.50
2022-10-22T14:47:21.387Z,46.50
2022-10-22T14:50:08.040Z,47.40
2022-10-22T14:52:53.657Z,49.40
2022-10-22T14:55:40.329Z,50.20
2022-10-22T14:58:26.716Z,50.40
2022-10-22T15:01:12.738Z,51.70
2022-10-22T15:03:58.446Z,52.10
2022-10-22T15:06:43.839Z,52.60
2022-10-22T15:09:29.985Z,53.10
2022-10-22T15:12:15.701Z,56.10
2022-10-22T15:15:01.207Z,54.10
2022-10-22T15:17:46.952Z,55.60
2022-10-22T15:20:32.587Z,58.10
2022-10-22T15:23:18.282Z,61.60
2022-10-22T15:26:06.682Z,63.80
2022-10-22T15:28:52.193Z,63.60
2022-10-22T15:31:57.778Z,64.10
2022-10-22T15:34:43.303Z,65.80
2022-10-22T15:37:28.662Z,67.80
2022-10-22T15:40:14.541Z,69.40
2022-10-22T15:42:59.754Z,69.80
2022-10-22T15:45:59.401Z,69.70
2022-10-22T15:48:46.006Z,72.00
2022-10-22T15:51:31.570Z,73.10
2022-10-22T15:54:20.007Z,74.10
2022-10-22T15:57:08.615Z,75.30
2022-10-22T15:59:54.375Z,76.20
2022-10-22T16:02:40.146Z,78.00
2022-10-22T16:05:27.519Z,78.10
2022-10-22T16:08:13.024Z,79.00
2022-10-22T16:10:59.020Z,79.80
2022-10-22T16:13:44.647Z,81.00
2022-10-22T16:16:33.740Z,82.30
2022-10-22T16:19:21.229Z,83.80
2022-10-22T16:22:10.095Z,84.50
2022-10-22T16:24:55.576Z,85.00
2022-10-22T16:27:43.115Z,85.90
2022-10-22T16:30:28.903Z,86.60
2022-10-22T16:33:14.906Z,87.00
2022-10-22T16:36:02.087Z,89.60
2022-10-22T16:38:48.667Z,90.30
2022-10-22T16:41:35.428Z,91.00
2022-10-22T16:44:22.012Z,91.20
2022-10-22T16:47:07.656Z,91.50
2022-10-22T16:49:55.919Z,91.80
2022-10-22T16:52:42.550Z,92.60
2022-10-22T16:55:28.104Z,92.50
2022-10-22T16:58:13.683Z,93.20
2022-10-22T17:01:00.454Z,93.80
2022-10-22T17:03:46.508Z,94.10
2022-10-22T17:06:32.810Z,94.10
2022-10-22T17:09:18.566Z,94.60
2022-10-22T17:12:04.311Z,95.20
2022-10-22T17:14:51.109Z,95.60
2022-10-22T17:17:36.879Z,96.10
2022-10-22T17:20:23.692Z,96.30
2022-10-22T17:23:10.137Z,96.50
2022-10-22T17:26:13.050Z,96.80
2022-10-22T17:28:59.502Z,97.60
2022-10-22T17:31:46.102Z,98.40
2022-10-22T17:34:33.254Z,98.10
2022-10-22T17:37:19.185Z,98.50
2022-10-22T17:40:07.129Z,98.90
2022-10-22T17:42:54.102Z,99.90
2022-10-22T17:45:40.003Z,99.90
2022-10-22T17:48:26.076Z,99.90
2022-10-22T17:51:13.613Z,99.90
2022-10-22T17:53:59.753Z,99.90
2022-10-22T17:56:45.683Z,99.90
2022-10-22T17:59:31.702Z,99.90
2022-10-22T18:02:19.423Z,99.90
2022-10-22T18:05:08.546Z,99.90
2022-10-22T18:07:55.512Z,99.90
2022-10-22T18:10:41.589Z,99.90
2022-10-22T18:13:27.400Z,99.90
2022-10-22T18:16:14.013Z,99.90
2022-10-22T18:19:00.599Z,99.90
2022-10-22T18:21:46.987Z,99.90
2022-10-22T18:24:32.877Z,99.90
2022-10-22T18:27:18.584Z,99.90
2022-10-22T18:30:05.003Z,99.90
2022-10-22T18:32:51.778Z,99.90
2022-10-22T18:35:37.940Z,99.90
2022-10-22T18:38:23.685Z,99.90
2022-10-22T18:41:13.614Z,99.90
2022-10-22T18:44:03.027Z,99.90
2022-10-22T18:46:49.108Z,99.90
2022-10-22T18:49:35.304Z,99.90
2022-10-22T18:52:21.244Z,99.90
2022-10-22T18:55:07.137Z,99.90
2022-10-22T18:57:52.869Z,99.90
2022-10-22T19:00:39.225Z,99.90
2022-10-22T19:03:30.080Z,99.90
2022-10-22T19:06:24.799Z,99.90
2022-10-22T19:09:11.233Z,99.90
2022-10-22T19:11:59.919Z,99.90
2022-10-22T19:14:53.653Z,99.90
2022-10-22T19:17:40.301Z,99.90
2022-10-22T19:20:26.575Z,99.90
2022-10-22T19:23:12.122Z,99.90
2022-10-22T19:26:12.286Z,99.90
2022-10-22T19:28:59.138Z,99.90
2022-10-22T19:31:45.799Z,99.90
2022-10-22T19:34:39.089Z,99.90
2022-10-22T19:37:25.443Z,99.90
2022-10-22T19:40:11.348Z,99.90
2022-10-22T19:42:58.273Z,99.90
2022-10-22T19:45:43.934Z,99.90
2022-10-22T19:48:30.623Z,99.90
2022-10-22T19:51:21.941Z,99.90
2022-10-22T19:54:11.881Z,99.90
2022-10-22T19:56:57.917Z,99.90
2022-10-22T19:59:44.116Z,99.90
2022-10-22T20:02:31.538Z,99.90
2022-10-22T20:05:17.678Z,99.90
2022-10-22T20:08:03.524Z,99.90
2022-10-22T20:10:49.766Z,99.90
2022-10-22T20:13:37.210Z,99.90
2022-10-22T20:16:31.997Z,99.90
2022-10-22T20:19:18.513Z,99.90
2022-10-22T20:22:05.385Z,99.90
2022-10-22T20:24:52.364Z,99.90
2022-10-22T20:27:39.408Z,99.90
2022-10-22T20:30:24.974Z,99.90
2022-10-22T20:33:11.318Z,99.90
2022-10-22T20:36:02.765Z,99.90
2022-10-22T20:38:49.317Z,99.90
2022-10-22T20:41:40.863Z,99.90
2022-10-22T20:44:27.153Z,99.90
2022-10-22T20:47:13.299Z,99.90
2022-10-22T20:49:59.092Z,99.90
2022-10-22T20:52:46.980Z,99.90
2022-10-22T20:55:35.635Z,99.90
2022-10-22T20:58:24.535Z,99.90
2022-10-22T21:01:21.419Z,99.90
2022-10-22T21:04:09.274Z,99.90
2022-10-22T21:06:57.209Z,99.90
2022-10-22T21:09:44.427Z,99.90
2022-10-22T21:12:30.038Z,99.90
2022-10-22T21:15:18.151Z,99.90
2022-10-22T21:18:03.671Z,99.90
2022-10-22T21:20:49.217Z,99.90
2022-10-22T21:23:36.304Z,99.90
2022-10-22T21:26:22.255Z,99.90
2022-10-22T21:29:09.153Z,99.90
2022-10-22T21:31:55.537Z,99.90
2022-10-22T21:34:41.262Z,99.90
2022-10-22T21:37:30.073Z,99.90
2022-10-22T21:40:16.322Z,99.90
2022-10-22T21:43:02.488Z,99.90
2022-10-22T21:45:48.238Z,99.90
2022-10-22T21:48:35.821Z,99.90
2022-10-22T21:51:22.852Z,99.90
2022-10-22T21:54:12.531Z,99.90
2022-10-22T21:56:58.542Z,99.90
2022-10-22T21:59:46.123Z,99.90
2022-10-22T22:02:32.469Z,99.90
2022-10-22T22:05:18.918Z,99.90
2022-10-22T22:08:06.173Z,99.90
2022-10-22T22:10:52.247Z,99.90
2022-10-22T22:13:39.275Z,99.90
2022-10-22T22:16:31.573Z,99.90
2022-10-22T22:19:20.141Z,99.90
2022-10-22T22:22:06.381Z,99.90
2022-10-22T22:24:59.186Z,99.90
2022-10-22T22:27:44.684Z,99.90
2022-10-22T22:30:30.728Z,99.90
2022-10-22T22:33:18.104Z,99.90
2022-10-22T22:36:03.810Z,99.90
2022-10-22T22:38:48.969Z,99.90
2022-10-22T22:41:40.618Z,99.90
2022-10-22T22:44:26.527Z,99.90
2022-10-22T22:47:13.188Z,99.90
2022-10-22T22:49:58.819Z,99.90
2022-10-22T22:52:44.739Z,99.90
2022-10-22T22:55:32.294Z,99.90
2022-10-22T22:58:18.859Z,99.90
2022-10-22T23:01:13.604Z,99.90
2022-10-22T23:04:16.358Z,99.90
2022-10-22T23:07:02.676Z,99.90
2022-10-22T23:09:48.816Z,99.90
2022-10-22T23:12:34.429Z,99.90
2022-10-22T23:15:21.451Z,99.90
2022-10-22T23:18:07.434Z,99.90
2022-10-22T23:20:53.116Z,99.90
2022-10-22T23:23:38.537Z,99.90
2022-10-22T23:26:34.345Z,99.90
2022-10-22T23:29:27.004Z,99.90
2022-10-22T23:32:15.225Z,99.90
2022-10-22T23:35:00.796Z,99.90
2022-10-22T23:37:46.629Z,99.90
2022-10-22T23:40:32.811Z,99.90
2022-10-22T23:43:19.357Z,99.90
2022-10-22T23:46:09.978Z,99.90
2022-10-22T23:48:55.962Z,99.90
2022-10-22T23:51:42.581Z,99.90
2022-10-22T23:54:29.801Z,99.90
2022-10-22T23:57:15.728Z,99.90
